Time;durP1;ratioP1;P1;durP2;ratioP2;P2;SDS_P1;SDS_P2;PMS_P1;PMS_P2;Temp;Humidity;BMP_temperature;BMP_pressure;BME280_temperature;BME280_humidity;BME280_pressure;Samples;Min_cycle;Max_cycle;Signal;HPM_P1;HPM_P2
2021/04/05 00:01:52;;;;;;;36.60;9.57;;;7.20;99.90;;;;;;5902641;39;20084;-71
2021/04/05 00:06:01;;;;;;;29.15;8.40;;;;;;;;;;5908616;40;20061;-71
2021/04/05 00:10:13;;;;;;;41.75;10.13;;;;;;;;;;5906322;39;20094;-71
2021/04/05 00:14:17;;;;;;;44.37;9.90;;;7.30;99.90;;;;;;5904068;40;20643;-72
2021/04/05 00:18:23;;;;;;;24.05;7.40;;;7.40;99.90;;;;;;5902288;40;20045;-71
2021/04/05 00:22:30;;;;;;;34.00;8.95;;;7.40;99.90;;;;;;5900951;40;20052;-71
2021/04/05 00:26:37;;;;;;;28.52;6.72;;;7.40;99.90;;;;;;5907685;39;20415;-71
2021/04/05 00:30:42;;;;;;;26.30;6.07;;;7.40;99.90;;;;;;5898017;40;20145;-71
2021/04/05 00:34:46;;;;;;;35.40;7.88;;;7.40;99.90;;;;;;5904806;39;20062;-70
2021/04/05 00:38:50;;;;;;;41.63;8.32;;;7.30;99.90;;;;;;5913893;40;20135;-71
2021/04/05 00:42:54;;;;;;;42.72;10.50;;;7.40;99.90;;;;;;5904589;39;20176;-72
2021/04/05 00:46:58;;;;;;;36.30;9.15;;;7.50;99.90;;;;;;5888332;40;20057;-71
2021/04/05 00:51:14;;;;;;;33.55;7.32;;;7.40;99.90;;;;;;5905665;40;20049;-71
2021/04/05 00:55:19;;;;;;;30.40;7.68;;;7.70;99.90;;;;;;5902200;39;20045;-72
2021/04/05 00:59:21;;;;;;;31.27;6.80;;;7.30;99.90;;;;;;5904078;40;20118;-71
2021/04/05 01:03:36;;;;;;;34.93;8.43;;;7.20;99.90;;;;;;5908390;40;20065;-72
2021/04/05 01:07:44;;;;;;;26.23;6.18;;;7.10;99.90;;;;;;5892560;39;20487;-72
2021/04/05 01:11:49;;;;;;;21.05;4.80;;;7.20;99.90;;;;;;5901703;40;20045;-72
2021/04/05 01:15:55;;;;;;;19.48;5.30;;;6.90;99.90;;;;;;5906657;40;20391;-73
2021/04/05 01:20:00;;;;;;;17.77;4.05;;;7.30;99.90;;;;;;5894743;40;20045;-73
2021/04/05 01:24:01;;;;;;;;;;;6.90;99.90;;;;;;5905082;40;20054;-73
2021/04/05 01:28:08;;;;;;;10.27;3.53;;;6.90;99.90;;;;;;5895753;40;20510;-73
2021/04/05 01:32:13;;;;;;;11.02;2.58;;;6.80;99.90;;;;;;5907402;39;20089;-73
2021/04/05 01:36:18;;;;;;;5.53;1.27;;;6.80;99.90;;;;;;5906208;39;20375;-73
2021/04/05 01:40:22;;;;;;;4.07;0.85;;;6.60;99.90;;;;;;5905983;39;20045;-73
2021/04/05 01:44:26;;;;;;;4.13;0.88;;;7.00;99.90;;;;;;5911243;40;20048;-73
2021/04/05 01:48:32;;;;;;;3.95;0.98;;;6.40;99.90;;;;;;5898268;40;20045;-72
2021/04/05 01:52:41;;;;;;;0.95;0.30;;;6.30;99.90;;;;;;5891768;40;20057;-72
2021/04/05 01:56:46;;;;;;;1.20;0.20;;;6.10;99.90;;;;;;5915801;39;20053;-71
2021/04/05 02:00:50;;;;;;;1.27;0.30;;;5.90;99.90;;;;;;5911964;40;20045;-73
2021/04/05 02:04:56;;;;;;;1.73;0.30;;;6.00;99.90;;;;;;5897490;40;20048;-73
2021/04/05 02:09:07;;;;;;;2.22;0.40;;;4.90;99.90;;;;;;5888915;40;20069;-72
2021/04/05 02:13:18;;;;;;;0.75;0.30;;;5.40;99.90;;;;;;5909115;40;20127;-72
2021/04/05 02:17:22;;;;;;;1.05;0.43;;;5.30;99.90;;;;;;5901558;40;20212;-72
2021/04/05 02:21:29;;;;;;;3.55;0.80;;;5.20;99.90;;;;;;5893928;40;20049;-72
2021/04/05 02:25:34;;;;;;;3.55;0.77;;;5.20;99.90;;;;;;5903839;40;20307;-73
2021/04/05 02:29:38;;;;;;;3.28;0.75;;;5.10;99.90;;;;;;5907926;39;20045;-72
2021/04/05 02:33:45;;;;;;;1.60;0.50;;;5.40;99.90;;;;;;5906140;39;20333;-73
2021/04/05 02:37:49;;;;;;;3.95;0.68;;;5.10;99.90;;;;;;5905699;39;20053;-72
2021/04/05 02:41:57;;;;;;;4.65;0.90;;;5.20;99.90;;;;;;5908634;40;20053;-72
2021/04/05 02:46:01;;;;;;;3.63;0.63;;;5.20;99.90;;;;;;5894924;40;20065;-73
2021/04/05 02:50:06;;;;;;;;;;;5.40;99.90;;;;;;5902154;40;20723;-73
2021/04/05 02:54:11;;;;;;;8.23;1.33;;;5.00;99.90;;;;;;5898837;40;19937;-73
2021/04/05 02:58:16;;;;;;;7.45;1.30;;;4.30;99.90;;;;;;5905824;39;20034;-72
2021/04/05 03:02:21;;;;;;;12.35;1.50;;;4.80;99.90;;;;;;5897687;40;20461;-72
2021/04/05 03:06:28;;;;;;;5.78;1.48;;;4.70;99.90;;;;;;5906059;40;20056;-72
2021/04/05 03:10:35;;;;;;;10.98;1.92;;;4.70;99.90;;;;;;5902189;40;20113;-72
2021/04/05 03:14:40;;;;;;;9.93;1.90;;;4.60;99.90;;;;;;5904698;40;20487;-72
2021/04/05 03:18:48;;;;;;;15.45;1.95;;;4.30;99.90;;;;;;5898321;40;20164;-72
2021/04/05 03:22:53;;;;;;;20.20;1.83;;;4.50;99.90;;;;;;5904774;39;20053;-72
2021/04/05 03:26:57;;;;;;;11.98;1.60;;;4.60;99.90;;;;;;5905941;40;20037;-72
2021/04/05 03:31:04;;;;;;;12.85;1.83;;;4.60;99.90;;;;;;5906477;39;20037;-72
2021/04/05 03:35:11;;;;;;;14.25;2.20;;;4.50;99.90;;;;;;5909199;40;20049;-72
2021/04/05 03:39:17;;;;;;;12.13;1.55;;;4.40;99.90;;;;;;5901356;40;20037;-72
2021/04/05 03:43:45;;;;;;;9.13;1.85;;;4.50;99.90;;;;;;5902889;40;20511;-71
2021/04/05 03:48:05;;;;;;;9.35;1.90;;;4.30;99.90;;;;;;5908088;39;20130;-72
2021/04/05 03:52:20;;;;;;;14.52;1.85;;;4.40;99.90;;;;;;5896284;40;20042;-72
2021/04/05 03:56:31;;;;;;;14.27;2.28;;;4.50;99.90;;;;;;5897160;40;20053;-72
2021/04/05 04:00:34;;;;;;;16.50;2.20;;;4.50;99.80;;;;;;5899973;40;20094;-72
2021/04/05 04:04:49;;;;;;;9.52;1.50;;;4.40;99.50;;;;;;5904068;40;21086;-71
2021/04/05 04:08:57;;;;;;;7.95;1.33;;;4.50;99.40;;;;;;5908709;40;20047;-72
2021/04/05 04:13:07;;;;;;;5.28;1.30;;;4.40;99.20;;;;;;5909049;40;20229;-71
2021/04/05 04:17:10;;;;;;;11.15;1.50;;;4.40;99.10;;;;;;5907036;40;20061;-73
2021/04/05 04:21:16;;;;;;;16.55;2.17;;;4.40;99.00;;;;;;5910330;39;20066;-72
2021/04/05 04:25:20;;;;;;;17.83;2.00;;;4.30;99.00;;;;;;5906363;39;20102;-71
2021/04/05 04:29:26;;;;;;;13.15;1.80;;;4.20;98.80;;;;;;5908728;39;20041;-71
2021/04/05 04:33:32;;;;;;;10.50;1.92;;;4.30;98.90;;;;;;5908406;40;20111;-71
2021/04/05 04:37:40;;;;;;;10.90;2.35;;;4.20;98.80;;;;;;5905905;39;20097;-71
2021/04/05 04:41:47;;;;;;;15.73;2.13;;;4.20;99.10;;;;;;5899886;40;20052;-71
2021/04/05 04:45:51;;;;;;;13.13;2.33;;;4.10;99.10;;;;;;5906848;40;20062;-72
2021/04/05 04:49:55;;;;;;;12.82;2.10;;;4.10;99.00;;;;;;5884195;40;20050;-72
2021/04/05 04:54:01;;;;;;;9.25;1.33;;;4.20;98.90;;;;;;5900087;40;20127;-72
2021/04/05 04:58:08;;;;;;;4.07;0.95;;;4.40;99.00;;;;;;5910219;39;20428;-72
2021/04/05 05:02:12;;;;;;;4.95;1.00;;;3.90;98.80;;;;;;5909277;39;20138;-72
2021/04/05 05:06:19;;;;;;;6.00;0.70;;;3.90;98.80;;;;;;5911467;39;20089;-72
2021/04/05 05:10:25;;;;;;;4.72;0.90;;;3.80;98.80;;;;;;5910010;39;20061;-72
2021/04/05 05:14:29;;;;;;;4.93;1.00;;;3.90;99.10;;;;;;5911300;39;20421;-72
2021/04/05 05:18:36;;;;;;;6.55;0.90;;;3.60;99.00;;;;;;5909355;39;20138;-71
2021/04/05 05:22:46;;;;;;;5.40;0.85;;;3.50;99.10;;;;;;5907347;39;20053;-70
2021/04/05 05:26:51;;;;;;;8.98;0.98;;;3.60;99.10;;;;;;5907553;39;20476;-73
2021/04/05 05:30:58;;;;;;;6.05;0.90;;;3.60;99.20;;;;;;5911325;39;20053;-74
2021/04/05 05:35:03;;;;;;;2.78;0.57;;;3.50;99.20;;;;;;5901302;40;20128;-73
2021/04/05 05:39:07;;;;;;;4.82;0.60;;;3.50;99.80;;;;;;5908082;40;20057;-70
2021/04/05 05:43:30;;;;;;;3.05;0.77;;;3.40;99.40;;;;;;5903829;40;20061;-71
2021/04/05 05:47:49;;;;;;;2.80;0.50;;;3.20;99.00;;;;;;5902025;39;20041;-70
2021/04/05 05:52:03;;;;;;;1.27;0.45;;;3.10;99.50;;;;;;5902407;40;20333;-71
2021/04/05 05:56:30;;;;;;;0.43;0.20;;;2.70;99.90;;;;;;5902448;39;20063;-71
2021/04/05 06:00:47;;;;;;;1.77;0.40;;;2.30;99.90;;;;;;5901277;40;20066;-70
2021/04/05 06:04:58;;;;;;;1.38;0.55;;;2.40;99.90;;;;;;5905764;39;20049;-71
2021/04/05 06:09:19;;;;;;;0.52;0.30;;;2.20;99.90;;;;;;5905289;39;20045;-71
2021/04/05 06:13:27;;;;;;;4.13;0.40;;;2.20;99.90;;;;;;5906147;39;20061;-71
2021/04/05 06:17:43;;;;;;;0.80;0.32;;;2.00;99.90;;;;;;5907556;39;20393;-71
2021/04/05 06:21:50;;;;;;;2.47;0.45;;;2.00;99.90;;;;;;5905320;40;20049;-71
2021/04/05 06:26:23;;;;;;;1.42;0.30;;;1.80;99.90;;;;;;5897024;39;20069;-72
2021/04/05 06:30:58;;;;;;;1.42;0.35;;;1.90;99.90;;;;;;5910643;40;20053;-71
2021/04/05 06:35:47;;;;;;;3.60;0.52;;;1.80;99.90;;;;;;5902873;40;20049;-71
2021/04/05 06:39:57;;;;;;;5.55;1.38;;;1.70;99.90;;;;;;5903537;40;20060;-70
2021/04/05 06:44:36;;;;;;;2.15;0.85;;;1.60;99.90;;;;;;5891304;39;20500;-72
2021/04/05 06:48:59;;;;;;;1.98;0.50;;;1.50;99.90;;;;;;5900400;40;20049;-70
2021/04/05 06:53:24;;;;;;;2.20;0.40;;;1.30;99.90;;;;;;5900738;40;20049;-71
2021/04/05 06:57:47;;;;;;;3.85;1.02;;;1.40;99.90;;;;;;5899524;40;20495;-71
2021/04/05 07:02:15;;;;;;;4.30;1.05;;;1.30;99.90;;;;;;5903133;40;20045;-70
2021/04/05 07:06:48;;;;;;;5.55;1.25;;;1.10;99.90;;;;;;5911123;40;20469;-71
2021/04/05 07:11:15;;;;;;;4.60;1.33;;;1.10;99.90;;;;;;5893522;40;20332;-71
2021/04/05 07:15:38;;;;;;;6.45;1.30;;;1.20;99.90;;;;;;5905035;39;20053;-71
2021/04/05 07:20:07;;;;;;;5.85;1.10;;;1.20;99.90;;;;;;5900643;40;20037;-71
2021/04/05 07:24:40;;;;;;;4.78;1.00;;;1.30;99.90;;;;;;5888337;40;20061;-70
2021/04/05 07:29:01;;;;;;;7.80;1.88;;;1.20;99.80;;;;;;5891542;40;20147;-71
2021/04/05 07:33:19;;;;;;;6.63;1.20;;;1.30;99.90;;;;;;5908125;39;20064;-70
2021/04/05 07:37:46;;;;;;;5.85;1.70;;;1.50;99.90;;;;;;5905123;39;20397;-71
2021/04/05 07:42:08;;;;;;;8.98;1.33;;;1.90;99.90;;;;;;5905732;40;20568;-71
2021/04/05 07:46:21;;;;;;;;;;;2.20;97.80;;;;;;5897332;40;20098;-70
2021/04/05 07:50:44;;;;;;;8.77;1.42;;;2.40;97.80;;;;;;5900679;39;20018;-71
2021/04/05 07:54:46;;;;;;;6.40;1.17;;;2.60;96.40;;;;;;5906437;40;20507;-72
2021/04/05 07:59:17;;;;;;;8.88;1.17;;;3.10;96.20;;;;;;5890012;39;20057;-71
2021/04/05 08:04:02;;;;;;;12.45;1.60;;;3.30;95.40;;;;;;5897249;40;20061;-71
2021/04/05 08:08:31;;;;;;;9.93;1.73;;;3.40;94.70;;;;;;5899974;40;20065;-71
2021/04/05 08:12:50;;;;;;;16.48;2.00;;;3.60;94.30;;;;;;5904593;40;20065;-71
2021/04/05 08:17:24;;;;;;;16.27;1.73;;;3.50;93.90;;;;;;5902718;39;20109;-71
2021/04/05 08:22:09;;;;;;;13.27;2.13;;;3.20;94.60;;;;;;5885101;40;20498;-71
2021/04/05 08:26:35;;;;;;;7.35;2.15;;;3.10;94.70;;;;;;5900329;40;20147;-72
2021/04/05 08:30:59;;;;;;;7.65;1.10;;;3.00;93.90;;;;;;5902440;40;20064;-71
2021/04/05 08:35:17;;;;;;;10.30;1.13;;;3.20;94.30;;;;;;5904568;39;20443;-72
2021/04/05 08:39:34;;;;;;;9.63;1.58;;;3.50;93.30;;;;;;5895130;39;22137;-71
2021/04/05 08:43:52;;;;;;;9.88;1.67;;;3.60;92.40;;;;;;5904727;39;20063;-71
2021/04/05 08:48:03;;;;;;;6.85;1.60;;;3.30;92.70;;;;;;5892655;39;20057;-71
2021/04/05 08:52:12;;;;;;;5.95;1.00;;;3.10;93.60;;;;;;5902715;40;20053;-72
2021/04/05 08:56:19;;;;;;;11.55;1.33;;;3.30;93.40;;;;;;5906393;40;20055;-72
2021/04/05 09:00:25;;;;;;;3.67;0.85;;;3.50;92.80;;;;;;5905063;40;20063;-71
2021/04/05 09:04:29;;;;;;;9.25;1.20;;;3.70;92.80;;;;;;5903347;40;20118;-72
2021/04/05 09:08:34;;;;;;;10.95;1.40;;;3.80;92.40;;;;;;5898884;40;20078;-70
2021/04/05 09:12:37;;;;;;;6.72;1.17;;;3.80;92.40;;;;;;5889117;40;20502;-71
2021/04/05 09:17:20;;;;;;;7.32;1.50;;;3.60;92.30;;;;;;5901189;40;20087;-71
2021/04/05 09:21:52;;;;;;;7.35;1.10;;;3.60;91.80;;;;;;5901453;39;20079;-71
2021/04/05 09:26:12;;;;;;;5.93;0.93;;;3.70;91.90;;;;;;5899880;40;20449;-71
2021/04/05 09:30:30;;;;;;;3.63;0.70;;;3.90;92.10;;;;;;5892787;40;20056;-70
2021/04/05 09:34:53;;;;;;;3.63;0.63;;;4.10;91.00;;;;;;5887452;40;21907;-70
2021/04/05 09:39:19;;;;;;;6.47;1.17;;;4.10;91.60;;;;;;5906015;39;20050;-71
2021/04/05 09:43:41;;;;;;;7.65;0.80;;;4.10;90.90;;;;;;5904567;40;20046;-70
2021/04/05 09:48:10;;;;;;;10.85;1.05;;;4.00;91.40;;;;;;5888880;40;20045;-70
2021/04/05 09:52:52;;;;;;;3.25;0.90;;;3.70;91.70;;;;;;5891545;40;20060;-71
2021/04/05 09:57:01;;;;;;;4.83;0.87;;;3.40;90.20;;;;;;5910775;39;20053;-71
2021/04/05 10:01:09;;;;;;;5.35;0.85;;;3.10;92.50;;;;;;5905700;40;20077;-70
2021/04/05 10:05:14;;;;;;;6.97;1.23;;;2.80;94.00;;;;;;5901887;40;20060;-71
2021/04/05 10:09:28;;;;;;;5.10;0.95;;;2.70;94.40;;;;;;5907119;40;20061;-70
2021/04/05 10:13:35;;;;;;;5.28;0.80;;;2.70;94.50;;;;;;5883018;40;20089;-70
2021/04/05 10:17:51;;;;;;;1.85;0.32;;;2.70;94.90;;;;;;5898595;39;20057;-70
2021/04/05 10:22:06;;;;;;;6.97;3.63;;;2.80;94.80;;;;;;5900096;40;20336;-70
2021/04/05 10:26:16;;;;;;;3.35;1.45;;;2.90;94.50;;;;;;5903447;39;20053;-71
2021/04/05 10:30:33;;;;;;;8.55;2.33;;;2.80;94.80;;;;;;5905381;40;20143;-71
2021/04/05 10:34:45;;;;;;;23.47;12.07;;;2.50;95.00;;;;;;5890898;39;20056;-71
2021/04/05 10:38:51;;;;;;;3.90;1.27;;;2.40;95.50;;;;;;5899816;40;20064;-70
2021/04/05 10:43:04;;;;;;;4.53;2.75;;;2.30;95.90;;;;;;5904541;40;20615;-70
2021/04/05 10:47:20;;;;;;;4.40;0.80;;;2.20;95.90;;;;;;5902431;39;20057;-71
2021/04/05 10:51:32;;;;;;;1.77;0.68;;;2.30;96.20;;;;;;5906956;39;20413;-71
2021/04/05 10:55:41;;;;;;;2.55;0.70;;;2.30;95.70;;;;;;5902460;39;20064;-70
2021/04/05 10:59:51;;;;;;;2.97;0.93;;;2.40;97.00;;;;;;5904904;39;20053;-70
2021/04/05 11:03:58;;;;;;;2.00;0.60;;;2.50;96.00;;;;;;5896134;40;20045;-71
2021/04/05 11:08:04;;;;;;;1.60;0.30;;;2.60;95.90;;;;;;5907440;39;20069;-70
2021/04/05 11:12:11;;;;;;;20.63;9.35;;;3.10;96.70;;;;;;5902569;40;20593;-71
2021/04/05 11:16:22;;;;;;;1.42;0.60;;;3.10;95.00;;;;;;5904650;39;20560;-70
2021/04/05 11:20:37;;;;;;;3.65;0.60;;;3.20;94.80;;;;;;5903016;40;20089;-71
2021/04/05 11:24:42;;;;;;;6.03;1.10;;;3.40;94.70;;;;;;5892518;40;20085;-71
2021/04/05 11:28:52;;;;;;;4.80;0.88;;;3.50;94.60;;;;;;5896317;40;20070;-71
2021/04/05 11:33:00;;;;;;;4.95;0.98;;;3.40;94.50;;;;;;5897190;40;20072;-72
2021/04/05 11:37:12;;;;;;;8.18;1.25;;;3.50;94.70;;;;;;5905516;40;20049;-71
2021/04/05 11:41:24;;;;;;;9.63;1.52;;;3.50;94.40;;;;;;5904342;39;20060;-71
2021/04/05 11:45:40;;;;;;;6.88;1.30;;;3.50;94.50;;;;;;5895174;40;20052;-71
2021/04/05 11:49:45;;;;;;;3.83;0.68;;;3.20;94.20;;;;;;5901306;40;20064;-70
2021/04/05 11:54:00;;;;;;;6.80;1.25;;;2.70;96.80;;;;;;5903221;40;20052;-71
2021/04/05 11:58:12;;;;;;;5.30;1.60;;;2.60;96.50;;;;;;5913362;40;20056;-70
2021/04/05 12:02:40;;;;;;;6.68;1.20;;;2.40;96.10;;;;;;5906095;39;20542;-71
2021/04/05 12:06:59;;;;;;;5.65;1.98;;;2.50;96.70;;;;;;5904952;40;20060;-70
2021/04/05 12:11:05;;;;;;;9.50;1.88;;;2.70;96.10;;;;;;5893710;40;20053;-71
2021/04/05 12:15:15;;;;;;;6.40;1.63;;;2.70;96.30;;;;;;5907967;39;20075;-71
2021/04/05 12:19:30;;;;;;;4.25;1.20;;;2.90;95.60;;;;;;5908250;40;20380;-70
2021/04/05 12:23:36;;;;;;;5.55;1.17;;;3.40;94.80;;;;;;5908347;39;20731;-70
2021/04/05 12:27:41;;;;;;;4.38;0.70;;;3.60;95.00;;;;;;5901796;40;20056;-70
2021/04/05 12:31:52;;;;;;;6.88;0.98;;;4.00;94.50;;;;;;5903924;39;20057;-71
2021/04/05 12:35:57;;;;;;;5.55;1.45;;;4.10;94.30;;;;;;5906730;40;20390;-70
2021/04/05 12:40:03;;;;;;;9.07;2.05;;;4.30;94.20;;;;;;5905979;40;20135;-71
2021/04/05 12:44:25;;;;;;;13.13;1.90;;;4.40;94.20;;;;;;5903656;39;20044;-71
2021/04/05 12:48:31;;;;;;;9.60;1.88;;;4.70;93.90;;;;;;5904374;40;20112;-70
2021/04/05 12:52:40;;;;;;;4.45;1.08;;;5.00;94.10;;;;;;5904471;39;20046;-70
2021/04/05 12:56:50;;;;;;;7.53;1.70;;;5.00;93.40;;;;;;5904266;40;20335;-71
2021/04/05 13:00:52;;;;;;;4.32;0.73;;;4.80;93.30;;;;;;5907140;40;20546;-69
2021/04/05 13:04:56;;;;;;;7.43;0.88;;;4.20;94.40;;;;;;5898029;39;20132;-70
2021/04/05 13:09:06;;;;;;;6.75;0.85;;;3.80;95.10;;;;;;5890349;40;20055;-70
2021/04/05 13:13:13;;;;;;;7.53;0.98;;;3.50;95.40;;;;;;5902089;40;20064;-70
2021/04/05 13:17:29;;;;;;;10.57;1.20;;;3.40;95.70;;;;;;5907052;40;20063;-69
2021/04/05 13:21:36;;;;;;;10.45;1.83;;;3.60;95.80;;;;;;5904046;39;20048;-70
2021/04/05 13:25:52;;;;;;;9.43;1.90;;;3.80;95.50;;;;;;5904274;39;20060;-70
2021/04/05 13:30:00;;;;;;;9.82;1.85;;;4.00;95.30;;;;;;5906282;39;20068;-70
2021/04/05 13:34:06;;;;;;;11.57;1.65;;;4.10;95.10;;;;;;5904549;39;20416;-70
2021/04/05 13:38:13;;;;;;;10.27;1.73;;;4.40;94.80;;;;;;5910625;39;20125;-69
2021/04/05 13:42:23;;;;;;;9.63;2.03;;;4.50;94.90;;;;;;5905001;40;20065;-70
2021/04/05 13:46:28;;;;;;;6.88;1.40;;;4.50;94.60;;;;;;5906213;40;20493;-69
2021/04/05 13:50:43;;;;;;;6.30;1.73;;;4.60;95.00;;;;;;5908905;40;20049;-70
2021/04/05 13:54:58;;;;;;;13.93;1.42;;;4.80;94.60;;;;;;5905558;40;20049;-70
2021/04/05 13:59:13;;;;;;;14.77;1.92;;;5.00;94.10;;;;;;5906633;40;20057;-71
2021/04/05 14:03:23;;;;;;;7.57;1.35;;;5.10;94.00;;;;;;5914200;40;20064;-70
2021/04/05 14:07:34;;;;;;;12.73;2.35;;;5.30;93.60;;;;;;5903285;40;20049;-70
2021/04/05 14:11:43;;;;;;;14.90;2.70;;;5.30;94.00;;;;;;5893641;40;20586;-69
2021/04/05 14:15:47;;;;;;;18.65;2.50;;;5.60;94.10;;;;;;5899010;40;20054;-70
2021/04/05 14:19:54;;;;;;;16.55;2.92;;;5.30;93.30;;;;;;5897330;39;20138;-70
2021/04/05 14:24:05;;;;;;;14.18;2.17;;;5.40;93.60;;;;;;5906650;39;20312;-70
2021/04/05 14:28:17;;;;;;;14.55;2.10;;;5.40;93.60;;;;;;5893355;40;20062;-71
2021/04/05 14:32:25;;;;;;;14.73;2.10;;;5.50;93.40;;;;;;5904309;40;20041;-70
2021/04/05 14:36:32;;;;;;;14.02;2.75;;;5.60;92.90;;;;;;5902785;39;20486;-69
2021/04/05 14:40:46;;;;;;;11.65;2.45;;;5.60;93.30;;;;;;5906816;39;20101;-69
2021/04/05 14:44:55;;;;;;;15.60;2.80;;;5.40;92.70;;;;;;5912979;40;20115;-70
2021/04/05 14:48:59;;;;;;;16.58;2.60;;;5.40;93.00;;;;;;5897130;40;20115;-71
2021/04/05 14:53:08;;;;;;;14.60;2.42;;;5.40;93.40;;;;;;5901482;39;20089;-70
2021/04/05 14:57:13;;;;;;;13.30;2.38;;;5.40;93.10;;;;;;5894592;40;20050;-70
2021/04/05 15:01:20;;;;;;;16.35;2.65;;;5.40;93.40;;;;;;5901515;39;20086;-69
2021/04/05 15:05:25;;;;;;;18.35;3.35;;;5.40;93.00;;;;;;5903231;40;20505;-71
2021/04/05 15:09:37;;;;;;;15.25;2.63;;;5.50;93.10;;;;;;5896848;40;20074;-70
2021/04/05 15:13:45;;;;;;;11.27;2.33;;;5.30;93.00;;;;;;5900855;39;20515;-70
2021/04/05 15:18:00;;;;;;;16.55;3.15;;;5.30;93.10;;;;;;5909974;39;20061;-70
2021/04/05 15:22:11;;;;;;;22.20;3.22;;;5.20;93.20;;;;;;5908045;40;20057;-70
2021/04/05 15:26:22;;;;;;;22.63;2.90;;;5.30;93.40;;;;;;5912630;39;20119;-70
2021/04/05 15:30:29;;;;;;;21.05;3.88;;;5.30;92.70;;;;;;5907931;39;20044;-70
2021/04/05 15:34:39;;;;;;;14.65;2.63;;;5.30;92.80;;;;;;5895200;40;20494;-70
2021/04/05 15:38:43;;;;;;;13.05;2.40;;;5.10;93.10;;;;;;5908232;39;20115;-70
2021/04/05 15:42:48;;;;;;;13.50;2.22;;;5.10;92.80;;;;;;5895334;40;20041;-70
2021/04/05 15:47:11;;;;;;;20.13;3.08;;;5.30;92.90;;;;;;5901955;40;20410;-71
2021/04/05 15:51:45;;;;;;;17.45;2.97;;;5.20;93.10;;;;;;5898681;39;20056;-70
2021/04/05 15:56:08;;;;;;;18.15;3.00;;;5.20;92.70;;;;;;5898287;40;20062;-70
2021/04/05 16:00:19;;;;;;;13.07;2.28;;;5.20;92.90;;;;;;5903957;40;20405;-70
2021/04/05 16:04:51;;;;;;;10.30;1.90;;;5.20;92.70;;;;;;5904218;39;20069;-71
2021/04/05 16:09:01;;;;;;;14.52;1.80;;;5.10;92.10;;;;;;5893820;40;20449;-71
2021/04/05 16:13:18;;;;;;;11.27;1.35;;;5.00;92.50;;;;;;5889735;40;20131;-70
2021/04/05 16:17:36;;;;;;;12.43;2.78;;;4.90;92.40;;;;;;5908617;40;20421;-70
2021/04/05 16:21:54;;;;;;;12.38;2.40;;;5.10;92.60;;;;;;5907652;39;20061;-70
2021/04/05 16:26:10;;;;;;;15.45;2.70;;;4.90;92.00;;;;;;5890995;40;20050;-72
2021/04/05 16:30:16;;;;;;;15.05;2.90;;;4.90;92.10;;;;;;5891882;40;20061;-70
2021/04/05 16:34:25;;;;;;;10.20;1.83;;;4.90;92.10;;;;;;5886687;40;20042;-70
2021/04/05 16:38:36;;;;;;;15.32;2.03;;;4.90;91.40;;;;;;5906332;40;20335;-69
2021/04/05 16:42:58;;;;;;;16.80;2.53;;;4.80;91.80;;;;;;5898227;40;20046;-71
2021/04/05 16:47:08;;;;;;;15.27;2.58;;;4.70;90.70;;;;;;5901326;39;20057;-70
2021/04/05 16:51:18;;;;;;;;;;;4.70;91.30;;;;;;5897560;40;20057;-71
2021/04/05 16:55:23;;;;;;;10.57;1.98;;;4.50;91.40;;;;;;5904824;39;19953;-71
2021/04/05 16:59:41;;;;;;;15.63;2.30;;;4.50;91.80;;;;;;5906107;39;20061;-70
2021/04/05 17:03:53;;;;;;;11.93;2.42;;;4.60;91.30;;;;;;5900239;40;20053;-71
2021/04/05 17:08:06;;;;;;;11.85;2.17;;;4.40;91.70;;;;;;5902263;39;20056;-70
2021/04/05 17:12:16;;;;;;;20.60;2.53;;;4.30;91.70;;;;;;5891502;40;20046;-70
2021/04/05 17:16:58;;;;;;;16.60;2.15;;;4.10;90.90;;;;;;5890189;40;20159;-70
2021/04/05 17:21:07;;;;;;;13.90;2.13;;;4.70;90.80;;;;;;5904466;39;20042;-70
2021/04/05 17:25:14;;;;;;;15.93;2.20;;;4.30;91.50;;;;;;5901851;40;20034;-70
2021/04/05 17:29:27;;;;;;;14.05;2.45;;;4.00;91.90;;;;;;5898168;40;20060;-70
2021/04/05 17:33:35;;;;;;;;;;;4.30;91.90;;;;;;5907008;40;20053;-70
2021/04/05 17:37:48;;;;;;;9.98;1.98;;;4.40;91.90;;;;;;5881385;39;21178;-70
2021/04/05 17:42:09;;;;;;;20.67;2.50;;;4.30;92.40;;;;;;5893302;40;23310;-70
2021/04/05 17:46:35;;;;;;;15.48;2.28;;;4.20;91.50;;;;;;5887165;40;20468;-70
2021/04/05 17:51:04;;;;;;;10.13;1.88;;;4.30;91.70;;;;;;5907798;40;20040;-71
2021/04/05 17:55:19;;;;;;;13.63;2.25;;;4.20;91.50;;;;;;5901551;40;20053;-70
2021/04/05 17:59:52;;;;;;;14.88;2.45;;;4.10;92.20;;;;;;5904020;39;20053;-69
2021/04/05 18:04:23;;;;;;;11.50;2.55;;;4.10;92.00;;;;;;5904294;40;20495;-69
2021/04/05 18:09:02;;;;;;;15.70;3.28;;;4.10;92.90;;;;;;5890953;39;20057;-69
2021/04/05 18:13:17;;;;;;;17.40;2.78;;;4.40;92.50;;;;;;5906918;40;20131;-69
2021/04/05 18:17:43;;;;;;;19.67;2.08;;;3.90;92.40;;;;;;5896555;39;20068;-71
2021/04/05 18:22:24;;;;;;;10.68;2.00;;;3.70;92.30;;;;;;5903346;40;20065;-69
2021/04/05 18:27:00;;;;;;;9.73;1.70;;;3.80;92.50;;;;;;5892541;40;20055;-71
2021/04/05 18:31:17;;;;;;;15.23;2.03;;;3.60;93.40;;;;;;5887342;40;20062;-72
2021/04/05 18:35:47;;;;;;;15.10;2.00;;;3.50;94.30;;;;;;5883421;40;20048;-71
2021/04/05 18:40:06;;;;;;;12.25;1.90;;;3.50;94.30;;;;;;5897521;39;20215;-71
2021/04/05 18:44:12;;;;;;;10.35;2.05;;;3.40;93.50;;;;;;5890553;40;20439;-70
2021/04/05 18:48:39;;;;;;;10.05;2.20;;;3.30;94.00;;;;;;5896996;40;20606;-71
2021/04/05 18:52:46;;;;;;;11.50;1.48;;;3.40;94.30;;;;;;5903413;39;20510;-71
2021/04/05 18:56:58;;;;;;;14.68;2.63;;;3.30;94.20;;;;;;5897582;39;20456;-71
2021/04/05 19:01:06;;;;;;;14.63;1.95;;;3.30;94.10;;;;;;5898514;40;20069;-71
2021/04/05 19:05:21;;;;;;;12.43;2.15;;;3.50;94.70;;;;;;5886273;40;20066;-70
2021/04/05 19:09:29;;;;;;;10.18;1.85;;;3.20;94.20;;;;;;5889931;40;20045;-71
2021/04/05 19:13:53;;;;;;;12.15;1.63;;;3.10;94.40;;;;;;5892364;40;20136;-71
2021/04/05 19:18:35;;;;;;;13.57;2.00;;;3.10;94.30;;;;;;5898733;40;20054;-70
2021/04/05 19:23:17;;;;;;;15.88;2.08;;;3.10;94.00;;;;;;5898246;39;20063;-71
2021/04/05 19:27:49;;;;;;;14.67;2.40;;;3.10;94.20;;;;;;5899112;40;20041;-72
2021/04/05 19:32:02;;;;;;;10.47;2.10;;;2.80;94.70;;;;;;5891226;40;20057;-71
2021/04/05 19:36:25;;;;;;;16.60;2.17;;;2.90;94.70;;;;;;5898972;40;20093;-71
2021/04/05 19:40:53;;;;;;;13.13;2.50;;;2.90;94.50;;;;;;5895997;40;20053;-72
2021/04/05 19:45:03;;;;;;;14.00;1.85;;;2.90;94.40;;;;;;5897369;40;20053;-72
2021/04/05 19:49:42;;;;;;;12.02;2.22;;;2.90;94.30;;;;;;5897153;40;20053;-71
2021/04/05 19:54:00;;;;;;;11.05;1.73;;;2.80;93.80;;;;;;5902030;40;20069;-71
2021/04/05 19:58:07;;;;;;;9.90;1.73;;;2.80;94.20;;;;;;5897786;40;20042;-72
2021/04/05 20:02:44;;;;;;;7.72;1.73;;;2.70;94.30;;;;;;5895237;39;20041;-71
2021/04/05 20:07:07;;;;;;;8.55;1.50;;;2.80;93.80;;;;;;5899977;39;20043;-71
2021/04/05 20:11:20;;;;;;;10.07;1.40;;;2.90;93.90;;;;;;5900804;39;20268;-72
2021/04/05 20:15:39;;;;;;;13.20;1.70;;;2.80;94.40;;;;;;5900880;40;20073;-72
2021/04/05 20:19:57;;;;;;;16.48;1.88;;;2.80;94.40;;;;;;5891148;40;20053;-72
2021/04/05 20:24:09;;;;;;;11.73;1.75;;;2.80;93.80;;;;;;5896687;40;20049;-71
2021/04/05 20:28:22;;;;;;;11.88;2.33;;;2.80;94.60;;;;;;5910088;40;20041;-71
2021/04/05 20:32:34;;;;;;;14.13;2.60;;;2.70;93.90;;;;;;5908132;40;20057;-71
2021/04/05 20:36:47;;;;;;;;;;;2.70;94.50;;;;;;5908284;40;20044;-71
2021/04/05 20:41:24;;;;;;;12.07;2.15;;;2.70;94.30;;;;;;5906550;40;19975;-72
2021/04/05 20:45:51;;;;;;;8.00;1.27;;;2.60;94.10;;;;;;5903760;40;21908;-71
2021/04/05 20:50:02;;;;;;;9.95;1.40;;;2.60;94.80;;;;;;5904628;39;20399;-71
2021/04/05 20:54:14;;;;;;;5.93;1.60;;;2.60;94.80;;;;;;5901295;40;20424;-71
2021/04/05 20:58:44;;;;;;;11.57;1.50;;;2.60;95.00;;;;;;5891175;40;20060;-70
2021/04/05 21:02:52;;;;;;;8.05;1.80;;;2.50;94.40;;;;;;5908748;40;20130;-71
2021/04/05 21:07:00;;;;;;;8.93;1.33;;;2.40;94.80;;;;;;5898688;40;20317;-70
2021/04/05 21:11:14;;;;;;;9.52;2.33;;;2.40;94.90;;;;;;5899448;39;20045;-70
2021/04/05 21:15:21;;;;;;;8.60;1.85;;;2.40;94.90;;;;;;5901114;40;20042;-70
2021/04/05 21:19:32;;;;;;;17.92;2.60;;;2.40;94.70;;;;;;5898073;39;20041;-70
2021/04/05 21:23:43;;;;;;;13.63;2.35;;;2.50;94.70;;;;;;5906011;39;20418;-70
2021/04/05 21:27:54;;;;;;;9.02;1.50;;;2.40;94.60;;;;;;5900680;40;20077;-70
2021/04/05 21:32:09;;;;;;;7.13;1.60;;;2.40;94.60;;;;;;5903379;40;20504;-71
2021/04/05 21:36:17;;;;;;;8.48;1.40;;;2.40;94.00;;;;;;5888628;40;20049;-70
2021/04/05 21:40:29;;;;;;;11.43;1.50;;;1.50;94.40;;;;;;5886335;39;20071;-70
2021/04/05 21:44:39;;;;;;;12.32;1.60;;;2.30;94.80;;;;;;5893567;39;20061;-71
2021/04/05 21:48:45;;;;;;;13.05;1.73;;;2.90;94.80;;;;;;5907026;40;20588;-70
2021/04/05 21:52:52;;;;;;;7.35;1.33;;;2.40;94.60;;;;;;5886476;40;20516;-71
2021/04/05 21:57:05;;;;;;;15.48;2.20;;;2.30;94.70;;;;;;5906389;40;20083;-71
2021/04/05 22:01:17;;;;;;;15.77;2.05;;;2.20;94.70;;;;;;5889306;40;20429;-71
2021/04/05 22:05:33;;;;;;;9.30;2.08;;;2.30;94.70;;;;;;5880771;39;20065;-71
2021/04/05 22:09:38;;;;;;;10.93;2.70;;;2.50;94.90;;;;;;5896130;40;20053;-71